createdAt,value
2018-05-17T00:00:38.607Z,99.90
2018-05-17T00:03:06.222Z,99.90
2018-05-17T00:05:33.749Z,99.90
2018-05-17T00:08:01.252Z,99.90
2018-05-17T00:10:29.762Z,99.90
2018-05-17T00:12:57.623Z,99.80
2018-05-17T00:15:25.169Z,99.90
2018-05-17T00:17:52.776Z,99.90
2018-05-17T00:20:20.478Z,99.20
2018-05-17T00:22:50.175Z,99.90
2018-05-17T00:25:17.805Z,99.90
2018-05-17T00:27:45.455Z,99.90
2018-05-17T00:30:12.988Z,99.90
2018-05-17T00:32:40.574Z,99.20
2018-05-17T00:35:08.082Z,99.60
2018-05-17T00:37:36.429Z,98.90
2018-05-17T00:40:03.988Z,98.80
2018-05-17T00:42:32.524Z,98.50
2018-05-17T00:45:00.133Z,98.50
2018-05-17T00:47:28.624Z,96.20
2018-05-17T00:49:56.126Z,96.50
2018-05-17T00:52:23.661Z,97.20
2018-05-17T00:54:51.150Z,93.70
2018-05-17T00:57:19.100Z,97.90
2018-05-17T00:59:46.865Z,98.10
2018-05-17T01:02:14.418Z,96.10
2018-05-17T01:04:42.056Z,96.60
2018-05-17T01:07:10.297Z,97.10
2018-05-17T01:09:37.793Z,97.10
2018-05-17T01:12:20.922Z,97.40
2018-05-17T01:14:48.685Z,98.00
2018-05-17T01:17:16.202Z,98.60
2018-05-17T01:19:43.867Z,98.80
2018-05-17T01:22:11.369Z,97.40
2018-05-17T01:24:38.980Z,94.80
2018-05-17T01:27:06.509Z,96.60
2018-05-17T01:29:34.194Z,94.00
2018-05-17T01:32:02.593Z,91.80
2018-05-17T01:34:30.877Z,95.30
2018-05-17T01:37:11.049Z,96.60
2018-05-17T01:39:38.574Z,96.50
2018-05-17T01:42:06.971Z,96.40
2018-05-17T01:44:34.705Z,96.40
2018-05-17T01:47:03.742Z,96.90
2018-05-17T01:49:31.349Z,96.80
2018-05-17T01:51:58.855Z,96.80
2018-05-17T01:54:26.357Z,97.10
2018-05-17T01:56:53.926Z,95.30
2018-05-17T01:59:21.742Z,96.70
2018-05-17T02:01:51.063Z,96.20
2018-05-17T02:04:18.998Z,96.90
2018-05-17T02:06:47.275Z,97.00
2018-05-17T02:09:14.951Z,96.70
2018-05-17T02:11:42.442Z,97.70
2018-05-17T02:14:10.007Z,97.80
2018-05-17T02:16:37.473Z,97.80
2018-05-17T02:19:05.846Z,98.30
2018-05-17T02:21:33.473Z,98.30
2018-05-17T02:24:00.941Z,98.00
2018-05-17T02:26:28.548Z,98.80
2018-05-17T02:28:56.025Z,98.60
2018-05-17T02:31:23.718Z,98.60
2018-05-17T02:33:51.231Z,98.60
2018-05-17T02:36:18.966Z,98.60
2018-05-17T02:38:47.208Z,98.20
2018-05-17T02:41:14.672Z,98.10
2018-05-17T02:43:43.687Z,98.10
2018-05-17T02:46:12.098Z,97.70
2018-05-17T02:48:39.801Z,97.70
2018-05-17T02:51:07.390Z,98.00
2018-05-17T02:53:36.431Z,98.50
2018-05-17T02:56:04.044Z,98.20
2018-05-17T02:58:32.304Z,97.60
2018-05-17T03:00:59.798Z,97.60
2018-05-17T03:03:27.370Z,97.80
2018-05-17T03:05:55.222Z,97.80
2018-05-17T03:08:22.746Z,97.60
2018-05-17T03:10:51.156Z,97.40
2018-05-17T03:13:19.229Z,97.30
2018-05-17T03:15:46.712Z,97.80
2018-05-17T03:18:14.262Z,97.50
2018-05-17T03:20:41.885Z,95.40
2018-05-17T03:23:09.472Z,96.00
2018-05-17T03:25:36.965Z,97.10
2018-05-17T03:28:04.523Z,97.00
2018-05-17T03:30:32.091Z,97.30
2018-05-17T03:33:00.391Z,97.30
2018-05-17T03:35:27.911Z,97.30
2018-05-17T03:37:55.383Z,97.60
2018-05-17T03:40:23.638Z,96.60
2018-05-17T03:42:51.135Z,96.50
2018-05-17T03:45:18.632Z,96.50
2018-05-17T03:47:46.153Z,96.90
2018-05-17T03:50:13.678Z,97.20
2018-05-17T03:52:41.970Z,97.30
2018-05-17T03:55:10.228Z,97.50
2018-05-17T03:57:38.556Z,97.20
2018-05-17T04:00:06.045Z,97.20
2018-05-17T04:02:45.513Z,97.10
2018-05-17T04:05:26.000Z,97.40
2018-05-17T04:07:53.528Z,97.40
2018-05-17T04:10:21.941Z,97.20
2018-05-17T04:12:49.962Z,97.20
2018-05-17T04:15:17.540Z,96.10
2018-05-17T04:17:45.832Z,96.80
2018-05-17T04:20:13.301Z,96.80
2018-05-17T04:22:40.981Z,96.70
2018-05-17T04:25:08.473Z,96.80
2018-05-17T04:27:36.144Z,96.10
2018-05-17T04:30:04.451Z,94.30
2018-05-17T04:32:32.190Z,94.30
2018-05-17T04:35:00.688Z,94.50
2018-05-17T04:37:28.210Z,94.40
2018-05-17T04:39:56.042Z,94.10
2018-05-17T04:42:23.621Z,94.00
2018-05-17T04:44:51.529Z,93.70
2018-05-17T04:47:19.154Z,92.00
2018-05-17T04:49:46.707Z,93.00
2018-05-17T04:52:14.293Z,93.00
2018-05-17T04:54:42.733Z,91.40
2018-05-17T04:57:10.571Z,91.40
2018-05-17T04:59:38.424Z,91.80
2018-05-17T05:02:05.979Z,89.30
2018-05-17T05:04:34.356Z,89.10
2018-05-17T05:07:02.053Z,90.30
2018-05-17T05:09:30.363Z,90.80
2018-05-17T05:11:57.952Z,90.10
2018-05-17T05:14:25.726Z,90.70
2018-05-17T05:16:53.306Z,89.40
2018-05-17T05:19:21.872Z,79.20
2018-05-17T05:21:50.025Z,79.20
2018-05-17T05:24:17.827Z,82.50
2018-05-17T05:26:45.528Z,85.60
2018-05-17T05:29:14.135Z,87.20
2018-05-17T05:31:42.134Z,87.10
2018-05-17T05:34:09.760Z,79.00
2018-05-17T05:36:37.394Z,76.80
2018-05-17T05:39:06.611Z,78.30
2018-05-17T05:41:34.214Z,78.30
2018-05-17T05:44:01.741Z,77.80
2018-05-17T05:46:29.292Z,80.60
2018-05-17T05:48:56.800Z,75.70
2018-05-17T05:51:24.442Z,74.20
2018-05-17T05:53:51.987Z,73.00
2018-05-17T05:56:19.702Z,72.80
2018-05-17T05:58:47.974Z,72.80
2018-05-17T06:01:16.270Z,71.90
2018-05-17T06:03:43.788Z,71.80
2018-05-17T06:06:12.080Z,72.00
2018-05-17T06:08:40.366Z,70.40
2018-05-17T06:11:08.671Z,66.50
2018-05-17T06:13:36.321Z,66.50
2018-05-17T06:16:03.809Z,65.90
2018-05-17T06:18:31.574Z,68.70
2018-05-17T06:20:59.145Z,66.30
2018-05-17T06:23:26.626Z,64.10
2018-05-17T06:25:54.883Z,63.40
2018-05-17T06:28:23.475Z,66.20
2018-05-17T06:30:51.742Z,63.00
2018-05-17T06:33:20.162Z,63.00
2018-05-17T06:35:47.669Z,63.00
2018-05-17T06:38:15.203Z,59.90
2018-05-17T06:40:42.705Z,60.60
2018-05-17T06:43:11.095Z,59.30
2018-05-17T06:45:38.573Z,59.30
2018-05-17T06:48:06.134Z,61.40
2018-05-17T06:50:33.689Z,56.90
2018-05-17T06:53:01.161Z,57.10
2018-05-17T06:55:28.684Z,55.90
2018-05-17T06:57:56.177Z,58.20
2018-05-17T07:00:23.830Z,52.90
2018-05-17T07:02:51.342Z,49.00
2018-05-17T07:05:19.600Z,45.50
2018-05-17T07:07:47.973Z,45.30
2018-05-17T07:10:15.519Z,45.30
2018-05-17T07:12:43.106Z,42.80
2018-05-17T07:15:11.365Z,37.60
2018-05-17T07:17:38.973Z,37.40
2018-05-17T07:20:06.457Z,38.20
2018-05-17T07:22:33.980Z,35.50
2018-05-17T07:25:01.578Z,35.60
2018-05-17T07:27:29.131Z,35.60
2018-05-17T07:29:56.670Z,34.70
2018-05-17T07:32:24.538Z,34.50
2018-05-17T07:34:52.423Z,32.20
2018-05-17T07:37:20.972Z,34.50
2018-05-17T07:39:48.489Z,34.10
2018-05-17T07:42:16.202Z,34.90
2018-05-17T07:44:43.876Z,35.60
2018-05-17T07:47:12.180Z,36.70
2018-05-17T07:49:40.516Z,38.40
2018-05-17T07:52:08.670Z,38.30
2018-05-17T07:54:37.766Z,38.40
2018-05-17T07:57:05.543Z,38.10
2018-05-17T07:59:33.179Z,38.30
2018-05-17T08:02:00.994Z,37.30
2018-05-17T08:04:28.878Z,33.90
2018-05-17T08:06:56.775Z,34.00
2018-05-17T08:09:24.826Z,32.70
2018-05-17T08:11:52.880Z,31.40
2018-05-17T08:14:20.557Z,32.40
2018-05-17T08:16:49.153Z,31.80
2018-05-17T08:19:17.418Z,31.80
2018-05-17T08:21:45.715Z,31.50
2018-05-17T08:24:13.440Z,31.50
2018-05-17T08:26:42.554Z,32.10
2018-05-17T08:29:10.189Z,32.10
2018-05-17T08:31:38.577Z,30.80
2018-05-17T08:34:06.934Z,30.60
2018-05-17T08:36:34.516Z,30.50
2018-05-17T08:39:02.163Z,29.60
2018-05-17T08:41:29.828Z,30.20
2018-05-17T08:43:57.388Z,31.00
2018-05-17T08:46:25.793Z,29.90
2018-05-17T08:48:53.878Z,29.50
2018-05-17T08:51:21.424Z,30.60
2018-05-17T08:53:49.002Z,29.00
2018-05-17T08:56:16.505Z,28.40
2018-05-17T08:58:44.963Z,26.90
2018-05-17T09:01:12.684Z,26.90
2018-05-17T09:03:40.313Z,27.40
2018-05-17T09:06:09.516Z,26.70
2018-05-17T09:08:37.194Z,26.60
2018-05-17T09:11:04.709Z,26.10
2018-05-17T09:13:32.549Z,26.90
2018-05-17T09:16:00.394Z,27.50
2018-05-17T09:18:28.012Z,29.10
2018-05-17T09:20:56.793Z,28.30
2018-05-17T09:23:26.335Z,28.50
2018-05-17T09:25:53.869Z,28.40
2018-05-17T09:28:22.900Z,27.60
2018-05-17T09:30:50.513Z,27.60
2018-05-17T09:33:18.827Z,25.90
2018-05-17T09:35:47.694Z,25.80
2018-05-17T09:38:15.287Z,26.10
2018-05-17T09:40:42.930Z,24.90
2018-05-17T09:43:10.487Z,24.90
2018-05-17T09:45:38.182Z,24.50
2018-05-17T09:48:05.955Z,23.70
2018-05-17T09:50:33.748Z,23.10
2018-05-17T09:53:02.030Z,23.50
2018-05-17T09:55:29.810Z,23.50
2018-05-17T09:57:57.501Z,23.30
2018-05-17T10:00:25.237Z,22.80
2018-05-17T10:02:53.031Z,22.50
2018-05-17T10:05:20.710Z,22.50
2018-05-17T10:07:48.379Z,22.50
2018-05-17T10:10:16.814Z,22.90
2018-05-17T10:12:44.279Z,22.50
2018-05-17T10:15:12.117Z,23.20
2018-05-17T10:17:39.724Z,22.90
2018-05-17T10:20:08.069Z,22.10
2018-05-17T10:22:35.772Z,22.50
2018-05-17T10:25:03.366Z,21.50
2018-05-17T10:27:35.027Z,21.50
2018-05-17T10:30:02.774Z,21.00
2018-05-17T10:32:30.377Z,21.20
2018-05-17T10:34:58.233Z,20.40
2018-05-17T10:37:25.922Z,21.00
2018-05-17T10:39:54.078Z,21.60
2018-05-17T10:42:22.525Z,22.00
2018-05-17T10:44:50.086Z,23.90
2018-05-17T10:47:17.640Z,23.80
2018-05-17T10:49:45.121Z,23.50
2018-05-17T10:52:12.658Z,22.80
2018-05-17T10:54:40.316Z,23.10
2018-05-17T10:57:07.854Z,23.60
2018-05-17T10:59:36.183Z,23.40
2018-05-17T11:02:05.512Z,23.40
2018-05-17T11:04:33.942Z,27.00
2018-05-17T11:07:01.604Z,26.90
2018-05-17T11:09:29.079Z,27.90
2018-05-17T11:11:56.702Z,29.00
2018-05-17T11:14:24.276Z,29.00
2018-05-17T11:16:51.947Z,30.00
2018-05-17T11:19:19.710Z,30.00
2018-05-17T11:21:47.476Z,30.40
2018-05-17T11:24:15.025Z,31.40
2018-05-17T11:26:43.619Z,32.10
2018-05-17T11:29:11.271Z,33.60
2018-05-17T11:31:38.904Z,34.40
2018-05-17T11:34:06.404Z,34.10
2018-05-17T11:36:34.052Z,34.10
2018-05-17T11:39:01.817Z,33.20
2018-05-17T11:41:29.366Z,33.70
2018-05-17T11:43:57.073Z,31.90
2018-05-17T11:46:25.330Z,33.70
2018-05-17T11:48:53.393Z,33.60
2018-05-17T11:51:21.131Z,34.40
2018-05-17T11:53:48.698Z,33.70
2018-05-17T11:56:16.432Z,33.90
2018-05-17T11:58:43.941Z,34.60
2018-05-17T12:01:11.561Z,33.60
2018-05-17T12:03:39.163Z,33.00
2018-05-17T12:06:06.751Z,33.50
2018-05-17T12:08:35.164Z,33.30
2018-05-17T12:11:02.676Z,33.30
2018-05-17T12:13:30.233Z,34.80
2018-05-17T12:15:58.493Z,36.80
2018-05-17T12:18:27.158Z,35.00
2018-05-17T12:20:54.673Z,35.50
2018-05-17T12:23:25.408Z,34.70
2018-05-17T12:25:53.074Z,33.80
2018-05-17T12:28:20.699Z,33.90
2018-05-17T12:30:48.956Z,37.20
2018-05-17T12:33:16.422Z,36.60
2018-05-17T12:35:44.701Z,36.90
2018-05-17T12:38:13.129Z,36.20
2018-05-17T12:40:40.627Z,36.20
2018-05-17T12:43:08.197Z,35.50
2018-05-17T12:45:36.656Z,33.80
2018-05-17T12:48:04.911Z,34.70
2018-05-17T12:50:33.992Z,34.60
2018-05-17T12:53:01.482Z,34.70
2018-05-17T12:55:29.089Z,34.80
2018-05-17T12:57:57.471Z,35.20
2018-05-17T13:00:24.982Z,35.60
2018-05-17T13:02:53.613Z,34.50
2018-05-17T13:05:23.989Z,34.50
2018-05-17T13:07:51.564Z,35.10
2018-05-17T13:10:19.890Z,32.90
2018-05-17T13:12:48.230Z,33.00
2018-05-17T13:15:16.915Z,32.90
2018-05-17T13:17:44.429Z,32.90
2018-05-17T13:20:11.986Z,32.60
2018-05-17T13:22:39.798Z,32.90
2018-05-17T13:25:07.252Z,33.70
2018-05-17T13:27:34.773Z,34.00
2018-05-17T13:30:05.700Z,34.80
2018-05-17T13:32:33.210Z,34.80
2018-05-17T13:35:00.714Z,35.10
2018-05-17T13:37:29.469Z,34.70
2018-05-17T13:39:57.218Z,34.60
2018-05-17T13:42:25.017Z,34.30
2018-05-17T13:44:53.364Z,34.30
2018-05-17T13:47:21.650Z,34.90
2018-05-17T13:49:49.911Z,34.90
2018-05-17T13:52:20.252Z,34.10
2018-05-17T13:54:48.006Z,33.80
2018-05-17T13:57:16.522Z,33.10
2018-05-17T13:59:44.147Z,33.50
2018-05-17T14:02:11.647Z,34.20
2018-05-17T14:04:40.045Z,32.90
2018-05-17T14:07:08.868Z,33.50
2018-05-17T14:09:36.516Z,33.40
2018-05-17T14:12:04.083Z,33.20
2018-05-17T14:14:31.562Z,33.40
2018-05-17T14:16:59.051Z,33.40
2018-05-17T14:19:27.404Z,32.30
2018-05-17T14:21:55.910Z,32.20
2018-05-17T14:24:25.122Z,32.30
2018-05-17T14:36:43.029Z,32.20
2018-05-17T14:39:11.562Z,33.70
2018-05-17T14:41:39.063Z,33.00
2018-05-17T14:44:07.369Z,33.30
2018-05-17T14:46:35.027Z,33.30
2018-05-17T14:49:02.903Z,32.20
2018-05-17T14:51:30.589Z,31.50
2018-05-17T14:53:58.213Z,31.80
2018-05-17T14:56:26.118Z,32.40
2018-05-17T14:58:54.881Z,32.00
2018-05-17T15:01:22.518Z,31.50
2018-05-17T15:03:50.316Z,31.20
2018-05-17T15:06:18.083Z,31.60
2018-05-17T15:08:47.494Z,31.40
2018-05-17T15:11:15.113Z,30.30
2018-05-17T15:13:42.940Z,30.10
2018-05-17T15:16:10.682Z,30.80
2018-05-17T15:18:39.851Z,30.50
2018-05-17T15:21:07.367Z,30.40
2018-05-17T15:23:35.375Z,31.10
2018-05-17T15:26:02.905Z,31.60
2018-05-17T15:28:31.109Z,31.80
2018-05-17T15:30:58.972Z,31.80
2018-05-17T15:33:26.588Z,32.00
2018-05-17T15:35:55.042Z,32.90
2018-05-17T15:38:24.314Z,32.80
2018-05-17T15:40:52.248Z,32.80
2018-05-17T15:43:19.797Z,32.70
2018-05-17T15:45:48.271Z,32.80
2018-05-17T15:48:15.839Z,33.30
2018-05-17T15:50:44.218Z,33.70
2018-05-17T15:53:11.936Z,34.50
2018-05-17T15:55:40.345Z,35.30
2018-05-17T15:58:07.906Z,35.20
2018-05-17T16:00:35.976Z,35.50
2018-05-17T16:03:03.857Z,35.80
2018-05-17T16:05:32.377Z,36.40
2018-05-17T16:08:00.093Z,36.80
2018-05-17T16:10:27.608Z,37.20
2018-05-17T16:12:55.976Z,36.60
2018-05-17T16:15:24.485Z,36.60
2018-05-17T16:17:51.993Z,35.70
2018-05-17T16:20:20.012Z,35.80
2018-05-17T16:22:48.582Z,35.20
2018-05-17T16:25:17.010Z,36.20
2018-05-17T16:27:44.771Z,36.20
2018-05-17T16:30:12.496Z,36.50
2018-05-17T16:32:42.216Z,36.40
2018-05-17T16:35:10.590Z,36.40
2018-05-17T16:37:39.322Z,35.90
2018-05-17T16:40:07.348Z,36.50
2018-05-17T16:42:35.008Z,37.00
2018-05-17T16:45:04.604Z,37.50
2018-05-17T16:47:32.368Z,37.50
2018-05-17T16:50:00.688Z,37.90
2018-05-17T16:52:28.290Z,37.80
2018-05-17T16:54:57.066Z,38.30
2018-05-17T16:57:25.522Z,37.90
2018-05-17T16:59:55.841Z,38.40
2018-05-17T17:12:08.489Z,37.90
2018-05-17T17:14:36.009Z,38.40
2018-05-17T17:17:03.590Z,39.00
2018-05-17T17:19:32.393Z,39.10
2018-05-17T17:21:59.906Z,39.60
2018-05-17T17:24:28.257Z,40.10
2018-05-17T17:27:00.683Z,39.90
2018-05-17T17:29:28.160Z,39.90
2018-05-17T17:31:55.685Z,39.60
2018-05-17T17:34:23.291Z,39.20
2018-05-17T17:36:50.840Z,39.80
2018-05-17T17:39:18.421Z,40.00
2018-05-17T17:44:17.742Z,40.60
2018-05-17T17:46:46.404Z,40.20
2018-05-17T17:49:13.938Z,40.20
2018-05-17T17:51:41.590Z,40.70
2018-05-17T17:54:09.755Z,41.20
2018-05-17T17:56:37.262Z,41.20
2018-05-17T17:59:04.836Z,41.30
2018-05-17T18:01:33.916Z,42.20
2018-05-17T18:04:01.595Z,42.20
2018-05-17T18:06:29.486Z,42.70
2018-05-17T18:08:57.278Z,43.10
2018-05-17T18:11:24.928Z,43.20
2018-05-17T18:13:52.429Z,43.40
2018-05-17T18:16:21.058Z,44.00
2018-05-17T18:18:50.837Z,44.00
2018-05-17T18:21:19.109Z,44.50
2018-05-17T18:23:47.380Z,44.60
2018-05-17T18:26:15.611Z,44.90
2018-05-17T18:28:44.078Z,44.80
2018-05-17T18:31:11.546Z,45.10
2018-05-17T18:33:39.793Z,45.40
2018-05-17T18:36:07.389Z,45.60
2018-05-17T18:38:34.899Z,46.20
2018-05-17T18:44:40.038Z,47.30
2018-05-17T18:47:08.309Z,47.90
2018-05-17T18:49:36.565Z,48.20
2018-05-17T18:54:32.152Z,48.60
2018-05-17T18:57:00.423Z,49.20
2018-05-17T18:59:28.175Z,49.60
2018-05-17T19:01:55.681Z,49.70
2018-05-17T19:04:24.088Z,49.80
2018-05-17T19:06:52.859Z,50.20
2018-05-17T19:09:22.069Z,50.50
2018-05-17T19:11:49.974Z,50.40
2018-05-17T19:14:17.448Z,50.80
2018-05-17T19:16:45.279Z,51.40
2018-05-17T19:19:12.958Z,51.50
2018-05-17T19:21:40.724Z,52.10
2018-05-17T19:24:08.182Z,52.50
2018-05-17T19:26:36.066Z,52.90
2018-05-17T19:29:03.528Z,53.20
2018-05-17T19:31:31.029Z,53.60
2018-05-17T19:33:58.556Z,54.00
2018-05-17T19:36:26.558Z,54.10
2018-05-17T19:38:54.028Z,54.70
2018-05-17T19:41:21.745Z,54.70
2018-05-17T19:43:50.093Z,55.30
2018-05-17T19:46:17.965Z,55.80
2018-05-17T19:48:45.415Z,55.60
2018-05-17T19:51:13.243Z,55.80
2018-05-17T19:53:41.519Z,56.20
2018-05-17T19:56:09.400Z,56.70
2018-05-17T19:58:36.868Z,57.10
2018-05-17T20:01:04.630Z,56.80
2018-05-17T20:03:32.122Z,56.90
2018-05-17T20:06:00.360Z,57.40
2018-05-17T20:08:27.972Z,57.30
2018-05-17T20:10:56.590Z,57.60
2018-05-17T20:13:24.118Z,57.60
2018-05-17T20:15:52.522Z,58.20
2018-05-17T20:18:20.040Z,58.10
2018-05-17T20:20:48.293Z,58.80
2018-05-17T20:23:15.813Z,58.80
2018-05-17T20:38:43.371Z,58.60
2018-05-17T20:41:11.630Z,61.70
2018-05-17T20:43:43.358Z,63.00
2018-05-17T20:46:10.886Z,62.60
2018-05-17T20:48:39.405Z,63.20
2018-05-17T20:51:06.923Z,63.80
2018-05-17T20:53:36.190Z,63.40
2018-05-17T20:56:03.722Z,63.40
2018-05-17T20:58:31.187Z,63.70
2018-05-17T21:00:58.727Z,63.90
2018-05-17T21:03:26.314Z,63.20
2018-05-17T21:05:53.798Z,63.40
2018-05-17T21:08:21.277Z,63.80
2018-05-17T21:10:48.785Z,64.60
2018-05-17T21:13:16.533Z,64.60
2018-05-17T21:15:44.396Z,65.00
2018-05-17T21:18:12.116Z,65.10
2018-05-17T21:20:40.542Z,65.50
2018-05-17T21:23:08.285Z,65.40
2018-05-17T21:25:36.164Z,65.40
2018-05-17T21:28:03.711Z,65.80
2018-05-17T21:30:31.169Z,65.70
2018-05-17T21:32:58.654Z,66.00
2018-05-17T21:35:26.112Z,66.00
2018-05-17T21:37:53.629Z,66.30
2018-05-17T21:40:21.091Z,66.70
2018-05-17T21:42:48.573Z,66.90
2018-05-17T21:45:16.065Z,67.70
2018-05-17T21:47:44.311Z,68.00
2018-05-17T21:50:12.208Z,68.00
2018-05-17T21:52:40.466Z,69.00
2018-05-17T21:55:07.940Z,68.30
2018-05-17T21:57:37.178Z,69.40
2018-05-17T22:00:04.722Z,69.40
2018-05-17T22:02:32.716Z,69.70
2018-05-17T22:05:00.564Z,70.80
2018-05-17T22:07:28.810Z,70.90
2018-05-17T22:09:57.055Z,71.50
2018-05-17T22:12:24.516Z,71.50
2018-05-17T22:14:52.034Z,71.60
2018-05-17T22:17:20.112Z,72.10
2018-05-17T22:19:47.590Z,72.50
2018-05-17T22:22:15.061Z,72.40
2018-05-17T22:24:43.530Z,73.20
2018-05-17T22:27:10.973Z,73.30
2018-05-17T22:29:38.906Z,73.70
2018-05-17T22:32:06.382Z,74.20
2018-05-17T22:34:33.850Z,74.50
2018-05-17T22:37:01.690Z,74.70
2018-05-17T22:39:29.150Z,74.60
2018-05-17T22:41:57.598Z,75.00
2018-05-17T22:44:25.080Z,75.50
2018-05-17T22:46:52.837Z,75.70
2018-05-17T22:49:20.317Z,75.70
2018-05-17T22:51:47.961Z,76.10
2018-05-17T22:54:15.381Z,76.20
2018-05-17T22:56:55.529Z,77.10
2018-05-17T22:59:23.763Z,77.70
2018-05-17T23:01:51.257Z,77.60
2018-05-17T23:04:19.489Z,77.80
2018-05-17T23:06:48.062Z,77.80
2018-05-17T23:09:15.524Z,78.30
2018-05-17T23:11:43.000Z,79.00
2018-05-17T23:14:10.466Z,78.70
2018-05-17T23:16:38.191Z,79.30
2018-05-17T23:19:06.342Z,81.40
2018-05-17T23:21:34.214Z,80.80
2018-05-17T23:24:01.746Z,81.20
2018-05-17T23:26:29.685Z,81.60
2018-05-17T23:28:57.161Z,81.60
2018-05-17T23:31:25.515Z,82.20
2018-05-17T23:33:53.541Z,82.10
2018-05-17T23:36:21.817Z,82.00
2018-05-17T23:38:49.292Z,83.40
2018-05-17T23:41:28.597Z,83.10
2018-05-17T23:43:56.448Z,83.50
2018-05-17T23:46:24.506Z,84.00
2018-05-17T23:48:52.740Z,84.90
2018-05-17T23:51:20.583Z,84.80
2018-05-17T23:53:48.065Z,84.50
2018-05-17T23:56:15.526Z,84.30
2018-05-17T23:58:43.001Z,84.50
